Time;durP1;ratioP1;P1;durP2;ratioP2;P2;SDS_P1;SDS_P2;PMS_P1;PMS_P2;Temp;Humidity;BMP_temperature;BMP_pressure;BME280_temperature;BME280_humidity;BME280_pressure;Samples;Min_cycle;Max_cycle;Signal;HPM_P1;HPM_P2
2022/10/10 00:09:05;;;;;;;4.15;3.65;;;;;;;11.02;100.00;97839.69;18239718;32;20408;-63
2022/10/10 00:19:07;;;;;;;4.93;3.17;;;;;;;11.05;100.00;97838.34;18240714;32;20054;-63
2022/10/10 00:29:09;;;;;;;5.15;3.60;;;;;;;11.08;100.00;97851.31;18168467;32;20397;-63
2022/10/10 00:39:12;;;;;;;9.48;4.10;;;;;;;11.07;100.00;97836.16;18168120;32;20063;-62
2022/10/10 00:49:18;;;;;;;7.65;4.22;;;;;;;11.06;100.00;97837.25;18154890;32;20085;-63
2022/10/10 00:59:22;;;;;;;8.85;5.90;;;;;;;11.06;100.00;97823.72;18154176;32;20059;-63
2022/10/10 01:09:26;;;;;;;7.20;4.83;;;;;;;11.15;100.00;97830.22;18153842;32;20135;-63
2022/10/10 01:20:08;;;;;;;6.93;4.60;;;;;;;11.19;100.00;97828.59;18153583;32;20063;-63
2022/10/10 01:30:16;;;;;;;5.18;4.35;;;;;;;11.24;100.00;97824.28;18181036;32;20051;-62
2022/10/10 01:40:32;;;;;;;6.10;3.87;;;;;;;11.22;100.00;97837.25;18236984;32;20073;-62
2022/10/10 01:51:04;;;;;;;7.75;4.18;;;;;;;11.18;100.00;97829.69;18236955;32;20062;-62
2022/10/10 02:01:20;;;;;;;5.45;4.60;;;;;;;11.21;100.00;97835.63;18236326;32;20050;-63
2022/10/10 02:11:25;;;;;;;7.15;4.70;;;;;;;11.21;100.00;97819.41;18236058;32;20042;-62
2022/10/10 02:21:29;;;;;;;6.55;3.92;;;;;;;11.17;100.00;97814.53;18235589;32;20074;-63
2022/10/10 02:31:47;;;;;;;6.00;3.97;;;;;;;11.10;100.00;97811.28;18234383;32;20066;-62
2022/10/10 02:41:51;;;;;;;5.70;4.20;;;;;;;11.06;100.00;97804.78;18162244;32;20067;-63
2022/10/10 02:51:53;;;;;;;10.88;6.55;;;;;;;11.00;100.00;97798.56;18161500;32;20105;-63
2022/10/10 03:01:56;;;;;;;8.48;6.05;;;;;;;11.05;100.00;97805.87;18161326;32;20067;-63
2022/10/10 03:11:58;;;;;;;6.85;5.37;;;;;;;11.08;100.00;97802.62;18217985;32;20070;-62
2022/10/10 03:22:00;;;;;;;8.30;5.05;;;;;;;11.10;100.00;97797.75;18232994;32;20093;-63
2022/10/10 03:32:03;;;;;;;7.65;5.57;;;;;;;11.07;100.00;97795.56;18231164;32;20179;-63
2022/10/10 03:42:11;;;;;;;8.02;5.75;;;;;;;11.02;100.00;97806.41;18231409;32;20054;-63
2022/10/10 03:52:13;;;;;;;9.02;6.10;;;;;;;11.04;100.00;97798.81;18230999;32;20054;-63
2022/10/10 04:02:15;;;;;;;7.05;5.53;;;;;;;11.08;100.00;97808.03;18231036;32;20145;-63
2022/10/10 04:12:18;;;;;;;7.25;5.28;;;;;;;11.11;100.00;97810.19;18229071;32;20121;-64
2022/10/10 04:22:20;;;;;;;6.47;5.00;;;;;;;11.11;100.00;97810.19;18230057;32;20051;-63
2022/10/10 04:32:22;;;;;;;8.38;5.95;;;;;;;11.14;100.00;97819.66;18228568;32;20046;-63
2022/10/10 04:42:25;;;;;;;11.20;5.70;;;;;;;11.15;100.00;97821.28;18229248;32;20066;-63
2022/10/10 04:52:27;;;;;;;9.18;5.37;;;;;;;11.16;100.00;97822.94;18233501;32;20091;-63
2022/10/10 05:02:30;;;;;;;7.90;5.25;;;;;;;11.16;100.00;97845.38;18238935;32;20070;-63
2022/10/10 05:12:32;;;;;;;8.00;4.80;;;;;;;11.16;100.00;97823.72;18238328;32;20068;-63
2022/10/10 05:22:35;;;;;;;9.35;5.80;;;;;;;11.14;100.00;97823.19;18153883;32;20089;-63
2022/10/10 05:32:37;;;;;;;11.25;6.22;;;;;;;11.15;100.00;97832.91;18165579;32;20124;-63
2022/10/10 05:42:40;;;;;;;9.60;5.37;;;;;;;11.19;100.00;97834.00;18165132;32;20126;-63
2022/10/10 05:52:43;;;;;;;9.07;5.35;;;;;;;11.19;100.00;97827.78;18221295;32;20362;-63
2022/10/10 06:02:45;;;;;;;7.55;5.25;;;;;;;11.22;100.00;97829.94;18235818;32;20114;-63
2022/10/10 06:12:48;;;;;;;7.45;5.53;;;;;;;11.29;100.00;97837.81;18163230;32;20059;-63
2022/10/10 06:22:51;;;;;;;6.50;4.82;;;;;;;11.30;100.00;97844.84;18039411;32;20089;-63
2022/10/10 06:32:54;;;;;;;7.62;5.10;;;;;;;11.31;100.00;97857.31;18039134;32;20489;-62
2022/10/10 06:42:58;;;;;;;12.03;5.23;;;;;;;11.40;100.00;97866.53;18035220;32;20108;-62
2022/10/10 06:53:01;;;;;;;7.18;5.47;;;;;;;11.51;100.00;97870.03;18193381;32;20072;-62
2022/10/10 07:03:04;;;;;;;6.62;5.12;;;;;;;11.60;100.00;97886.56;18086792;32;20107;-63
2022/10/10 07:13:07;;;;;;;7.75;4.68;;;;;;;11.74;100.00;97909.28;18036244;32;20076;-63
2022/10/10 07:23:10;;;;;;;5.30;4.80;;;;;;;11.85;100.00;97916.34;18048930;32;20086;-63
2022/10/10 07:33:14;;;;;;;6.20;4.43;;;;;;;11.98;100.00;97925.03;18133536;32;20093;-63
2022/10/10 07:43:16;;;;;;;7.33;5.10;;;;;;;12.05;100.00;97936.41;18170034;32;20141;-62
2022/10/10 07:53:19;;;;;;;7.07;4.43;;;;;;;12.06;100.00;97932.62;18231470;32;20109;-63
2022/10/10 08:03:21;;;;;;;5.15;4.30;;;;;;;12.16;100.00;97943.44;18217334;32;20047;-63
2022/10/10 08:13:26;;;;;;;3.70;3.40;;;;;;;12.37;100.00;97943.37;18230530;32;20359;-62
2022/10/10 08:23:33;;;;;;;5.53;3.62;;;;;;;12.60;100.00;97941.97;18231165;32;20059;-63
2022/10/10 08:33:37;;;;;;;6.55;5.35;;;;;;;12.78;100.00;97940.53;18168605;32;20074;-63
2022/10/10 08:43:49;;;;;;;6.03;4.97;;;;;;;13.39;100.00;97952.22;18167991;32;20088;-63
2022/10/10 08:53:56;;;;;;;8.00;6.32;;;;;;;13.73;100.00;97945.97;18043081;32;20058;-63
2022/10/10 09:04:02;;;;;;;7.55;5.55;;;;;;;14.08;100.00;97960.38;18040895;32;20089;-63
2022/10/10 09:14:30;;;;;;;8.75;6.18;;;;;;;14.24;100.00;97956.41;18104275;32;20394;-63
2022/10/10 09:25:07;;;;;;;7.95;6.43;;;;;;;14.72;100.00;97961.13;18131159;32;20051;-63
2022/10/10 09:35:25;;;;;;;7.03;5.35;;;;;;;15.13;100.00;97967.97;18042016;32;20105;-63
2022/10/10 09:45:38;;;;;;;6.12;4.95;;;;;;;15.46;100.00;97984.44;18041176;32;20076;-63
2022/10/10 09:55:42;;;;;;;7.22;5.78;;;;;;;15.72;100.00;97993.03;18040852;32;20520;-63
2022/10/10 10:05:58;;;;;;;9.50;6.20;;;;;;;15.90;100.00;97985.97;18099230;32;20469;-63
2022/10/10 10:16:12;;;;;;;9.95;6.80;;;;;;;16.11;100.00;97990.28;18234811;32;20074;-64
2022/10/10 10:26:36;;;;;;;8.03;5.00;;;;;;;16.30;100.00;97982.84;18235536;32;20062;-63
2022/10/10 10:36:57;;;;;;;8.18;5.30;;;;;;;16.38;100.00;97986.81;18235003;32;20121;-63
2022/10/10 10:47:13;;;;;;;5.35;3.95;;;;;;;16.55;100.00;97986.25;18232657;32;20443;-63
2022/10/10 10:57:39;;;;;;;6.12;3.45;;;;;;;16.64;100.00;97978.97;18233804;32;20470;-63
2022/10/10 11:08:24;;;;;;;8.35;3.50;;;;;;;16.90;98.85;97983.97;18222925;32;20051;-63
2022/10/10 11:18:32;;;;;;;6.37;2.97;;;;;;;17.18;93.35;97982.00;18232090;32;20071;-63
2022/10/10 11:28:46;;;;;;;3.47;2.45;;;;;;;17.45;92.63;97966.69;18231910;32;20081;-63
2022/10/10 11:39:13;;;;;;;2.08;1.65;;;;;;;17.86;93.39;97968.47;18232131;32;20071;-64
2022/10/10 11:49:27;;;;;;;2.08;1.67;;;;;;;18.57;88.31;97964.25;18231873;32;20355;-64
2022/10/10 11:59:39;;;;;;;3.78;2.00;;;;;;;19.13;82.62;97959.94;18234311;32;20055;-64
2022/10/10 12:09:51;;;;;;;3.70;1.83;;;;;;;19.68;85.21;97951.44;18169663;32;20138;-64
2022/10/10 12:20:07;;;;;;;2.83;2.12;;;;;;;20.19;85.98;97944.31;18169451;32;20197;-64
2022/10/10 12:30:18;;;;;;;4.72;2.08;;;;;;;20.53;79.37;97939.84;18168845;32;20075;-64
2022/10/10 12:40:24;;;;;;;4.15;1.90;;;;;;;21.01;79.16;97934.28;18182498;32;20392;-64
2022/10/10 12:50:33;;;;;;;2.62;1.95;;;;;;;21.41;81.53;97920.13;18238905;32;20054;-64
2022/10/10 13:00:40;;;;;;;2.97;1.90;;;;;;;21.23;75.12;97916.72;18235904;32;20516;-64
2022/10/10 13:11:02;;;;;;;3.60;1.87;;;;;;;21.04;75.41;97911.66;18235282;32;20047;-63
2022/10/10 13:21:13;;;;;;;4.50;2.28;;;;;;;20.79;79.62;97906.78;18235205;32;20062;-63
2022/10/10 13:31:18;;;;;;;2.47;1.95;;;;;;;20.78;75.48;97910.66;18234352;32;20066;-63
2022/10/10 13:41:25;;;;;;;2.83;1.80;;;;;;;20.70;74.71;97903.25;18234135;32;20442;-64
2022/10/10 13:51:45;;;;;;;2.58;1.58;;;;;;;20.66;79.02;97888.53;18233601;32;20050;-64
2022/10/10 14:01:58;;;;;;;4.82;1.77;;;;;;;20.67;76.05;97903.09;18164240;32;20135;-63
2022/10/10 14:12:06;;;;;;;3.95;1.95;;;;;;;20.46;74.53;97904.66;18163997;32;20435;-64
2022/10/10 14:22:10;;;;;;;2.85;1.92;;;;;;;20.16;77.14;97906.53;18038537;32;20071;-63
2022/10/10 14:32:15;;;;;;;4.32;2.10;;;;;;;19.91;78.16;97909.00;18027710;32;20176;-63
2022/10/10 14:42:21;;;;;;;4.07;2.10;;;;;;;19.65;81.56;97906.25;18038520;32;20468;-63
2022/10/10 14:52:23;;;;;;;2.70;1.42;;;;;;;19.50;85.51;97912.25;18054631;32;20065;-63
2022/10/10 15:02:28;;;;;;;2.80;1.45;;;;;;;19.35;85.66;97917.09;18232125;32;20108;-63
2022/10/10 15:12:34;;;;;;;5.25;1.80;;;;;;;19.13;87.02;97934.47;18233371;32;20098;-63
2022/10/10 15:22:37;;;;;;;3.65;2.00;;;;;;;18.83;88.94;97926.00;18232860;32;20072;-63
2022/10/10 15:32:40;;;;;;;;;;;;;;;18.70;91.52;97930.44;18231537;32;20442;-63
2022/10/10 15:42:44;;;;;;;3.12;1.58;;;;;;;18.59;93.99;97935.41;18232214;32;19938;-63
2022/10/10 15:52:47;;;;;;;3.20;2.00;;;;;;;18.37;96.72;97940.97;18231367;32;20371;-63
2022/10/10 16:02:50;;;;;;;;;;;;;;;18.10;98.89;97945.47;18231509;32;20058;-63
2022/10/10 16:12:54;;;;;;;2.40;1.90;;;;;;;17.93;100.00;97949.72;18230760;32;19998;-63
2022/10/10 16:22:56;;;;;;;;;;;;;;;17.78;100.00;97961.81;18230815;32;20050;-63
2022/10/10 16:32:59;;;;;;;5.43;2.22;;;;;;;17.56;100.00;97964.53;18229295;32;19966;-63
2022/10/10 16:43:03;;;;;;;2.30;1.70;;;;;;;17.32;100.00;97971.09;18229518;32;20051;-63
2022/10/10 16:53:06;;;;;;;;;;;;;;;17.16;100.00;97983.47;18239397;32;20062;-63
2022/10/10 17:03:09;;;;;;;4.05;2.30;;;;;;;16.96;100.00;97996.41;18239180;32;20296;-63
2022/10/10 17:13:12;;;;;;;3.50;1.93;;;;;;;16.75;100.00;97993.25;18237422;32;20063;-62
2022/10/10 17:23:15;;;;;;;2.35;1.98;;;;;;;16.52;100.00;98012.22;18237058;32;20042;-63
2022/10/10 17:33:19;;;;;;;3.37;1.93;;;;;;;16.31;100.00;98021.84;18237610;32;20077;-63
2022/10/10 17:43:22;;;;;;;3.60;2.10;;;;;;;15.99;100.00;98035.22;18237410;32;20151;-63
2022/10/10 17:53:25;;;;;;;4.83;2.00;;;;;;;15.74;100.00;98050.00;18236515;32;20054;-63
2022/10/10 18:03:28;;;;;;;3.77;2.03;;;;;;;15.53;100.00;98060.38;18235581;32;20150;-63
2022/10/10 18:13:31;;;;;;;4.10;2.08;;;;;;;15.41;100.00;98069.75;18236044;32;20063;-63
2022/10/10 18:23:35;;;;;;;4.07;2.12;;;;;;;15.36;100.00;98088.09;18236018;32;20080;-63
2022/10/10 18:33:39;;;;;;;4.68;2.28;;;;;;;15.27;100.00;98092.59;18234167;32;20085;-63
2022/10/10 18:43:43;;;;;;;3.58;2.30;;;;;;;15.20;100.00;98110.06;18234891;32;20102;-63
2022/10/10 18:53:47;;;;;;;3.87;2.00;;;;;;;15.17;100.00;98110.66;18234233;32;20054;-62
2022/10/10 19:03:49;;;;;;;5.50;2.00;;;;;;;15.14;100.00;98127.56;18234199;32;20069;-63
2022/10/10 19:13:52;;;;;;;7.37;2.37;;;;;;;15.14;100.00;98119.37;18231781;32;20118;-63
2022/10/10 19:23:57;;;;;;;3.72;2.20;;;;;;;15.18;100.00;98130.53;18233339;32;20482;-63
2022/10/10 19:34:00;;;;;;;5.47;2.25;;;;;;;15.22;100.00;98132.41;18232284;32;20062;-64
2022/10/10 19:44:04;;;;;;;5.07;2.70;;;;;;;15.23;100.00;98144.91;18230614;32;20384;-63
2022/10/10 19:54:07;;;;;;;;;;;;;;;15.18;100.00;98146.88;18218038;32;20065;-63
2022/10/10 20:04:10;;;;;;;6.35;2.03;;;;;;;15.16;100.00;98166.22;18231850;32;19946;-63
2022/10/10 20:14:13;;;;;;;5.25;2.22;;;;;;;15.13;100.00;98183.16;18230810;32;20077;-63
2022/10/10 20:24:16;;;;;;;3.72;1.90;;;;;;;15.07;100.00;98179.69;18237511;32;20430;-63
2022/10/10 20:34:19;;;;;;;4.43;1.98;;;;;;;15.00;100.00;98195.50;18239746;32;20413;-63
2022/10/10 20:44:22;;;;;;;3.85;1.48;;;;;;;14.91;100.00;98211.66;18238710;32;20059;-63
2022/10/10 20:54:24;;;;;;;2.80;1.30;;;;;;;14.82;100.00;98221.53;18239222;32;20050;-63
2022/10/10 21:04:27;;;;;;;3.08;1.50;;;;;;;14.74;100.00;98238.47;18238157;32;20081;-64
2022/10/10 21:14:29;;;;;;;5.12;1.37;;;;;;;14.68;100.00;98242.34;18239128;32;20105;-63
2022/10/10 21:24:32;;;;;;;5.70;1.48;;;;;;;14.63;100.00;98245.91;18238315;32;20460;-63
2022/10/10 21:34:34;;;;;;;3.37;1.42;;;;;;;14.52;100.00;98233.44;18236256;32;20058;-63
2022/10/10 21:44:37;;;;;;;4.32;1.67;;;;;;;14.39;100.00;98232.16;18237387;32;20058;-63
2022/10/10 21:54:40;;;;;;;3.37;1.42;;;;;;;14.28;100.00;98223.25;18235205;32;20110;-63
2022/10/10 22:04:42;;;;;;;4.97;1.45;;;;;;;14.14;100.00;98217.59;18089586;32;20348;-63
2022/10/10 22:14:45;;;;;;;3.12;1.17;;;;;;;14.06;100.00;98220.91;18101774;32;20079;-63
2022/10/10 22:24:47;;;;;;;2.55;1.05;;;;;;;13.99;100.00;98212.22;18101374;32;20066;-63
2022/10/10 22:34:50;;;;;;;2.65;1.30;;;;;;;13.90;100.00;98215.50;18095239;32;20389;-63
2022/10/10 22:44:52;;;;;;;4.00;1.00;;;;;;;13.83;100.00;98208.78;18233277;32;20050;-63
2022/10/10 22:54:54;;;;;;;3.42;1.05;;;;;;;13.79;100.00;98204.97;18234159;32;20058;-63
2022/10/10 23:04:58;;;;;;;3.80;1.10;;;;;;;13.72;100.00;98210.72;18220489;32;20426;-64
2022/10/10 23:15:00;;;;;;;2.73;1.20;;;;;;;13.68;100.00;98210.44;18232664;32;20099;-63
2022/10/10 23:25:03;;;;;;;2.67;1.05;;;;;;;13.62;100.00;98208.00;18232905;32;20054;-63
2022/10/10 23:35:06;;;;;;;6.05;1.23;;;;;;;13.56;100.00;98205.31;18232437;32;20371;-63
2022/10/10 23:45:09;;;;;;;2.05;1.00;;;;;;;13.53;100.00;98219.44;18159490;32;20277;-63
2022/10/10 23:55:11;;;;;;;1.87;1.02;;;;;;;13.43;100.00;98222.22;18163585;32;20070;-63
